createdAt,value
2018-12-04T00:01:45.058Z,93.85
2018-12-04T00:04:34.609Z,93.05
2018-12-04T00:07:22.820Z,99.92
2018-12-04T00:10:11.647Z,105.90
2018-12-04T00:13:00.309Z,108.20
2018-12-04T00:15:49.357Z,108.72
2018-12-04T00:18:37.757Z,106.95
2018-12-04T00:21:27.045Z,111.32
2018-12-04T00:24:15.861Z,109.97
2018-12-04T00:27:05.041Z,114.25
2018-12-04T00:29:53.333Z,113.57
2018-12-04T00:32:41.457Z,116.53
2018-12-04T00:35:30.356Z,120.97
2018-12-04T00:38:19.254Z,119.02
2018-12-04T00:41:07.179Z,119.13
2018-12-04T00:43:55.903Z,123.58
2018-12-04T00:46:44.173Z,123.22
2018-12-04T00:49:34.637Z,120.25
2018-12-04T00:52:23.319Z,125.67
2018-12-04T00:55:13.498Z,120.62
2018-12-04T00:58:02.447Z,121.35
2018-12-04T01:00:51.583Z,112.35
2018-12-04T01:03:40.671Z,114.37
2018-12-04T01:06:29.515Z,114.65
2018-12-04T01:09:17.792Z,113.17
2018-12-04T01:12:06.478Z,113.00
2018-12-04T01:14:55.174Z,113.80
2018-12-04T01:17:42.993Z,116.40
2018-12-04T01:20:31.442Z,113.37
2018-12-04T01:23:19.835Z,111.17
2018-12-04T01:26:09.799Z,114.62
2018-12-04T01:28:58.038Z,116.73
2018-12-04T01:31:47.069Z,110.80
2018-12-04T01:34:36.990Z,111.97
2018-12-04T01:37:26.177Z,110.78
2018-12-04T01:40:14.596Z,112.97
2018-12-04T01:43:04.201Z,112.03
2018-12-04T01:45:52.769Z,111.28
2018-12-04T01:48:41.071Z,115.77
2018-12-04T01:51:29.417Z,111.08
2018-12-04T01:54:18.377Z,112.32
2018-12-04T01:57:07.702Z,109.10
2018-12-04T01:59:56.591Z,111.00
2018-12-04T02:02:44.987Z,109.03
2018-12-04T02:05:33.771Z,112.25
2018-12-04T02:08:22.511Z,109.37
2018-12-04T02:11:11.898Z,107.35
2018-12-04T02:14:00.459Z,109.55
2018-12-04T02:16:49.536Z,109.60
2018-12-04T02:19:38.038Z,108.80
2018-12-04T02:22:26.555Z,112.20
2018-12-04T02:25:14.695Z,114.32
2018-12-04T02:28:05.271Z,110.70
2018-12-04T02:30:53.195Z,116.73
2018-12-04T02:33:41.533Z,114.42
2018-12-04T02:36:34.825Z,111.90
2018-12-04T02:39:25.865Z,109.50
2018-12-04T02:42:14.316Z,110.52
2018-12-04T02:45:03.762Z,107.85
2018-12-04T02:47:52.121Z,106.15
2018-12-04T02:50:41.070Z,107.17
2018-12-04T02:53:31.597Z,108.12
2018-12-04T02:56:20.360Z,105.27
2018-12-04T02:59:09.415Z,102.42
2018-12-04T03:01:57.714Z,105.92
2018-12-04T03:04:46.768Z,106.10
2018-12-04T03:07:35.089Z,105.80
2018-12-04T03:10:23.434Z,107.47
2018-12-04T03:13:12.498Z,104.78
2018-12-04T03:16:03.273Z,103.07
2018-12-04T03:18:52.329Z,100.55
2018-12-04T03:21:40.187Z,99.97
2018-12-04T03:24:27.949Z,99.83
2018-12-04T03:27:15.871Z,99.97
2018-12-04T03:30:04.110Z,95.10
2018-12-04T03:32:52.963Z,97.08
2018-12-04T03:35:42.170Z,96.60
2018-12-04T03:38:31.194Z,95.97
2018-12-04T03:41:19.630Z,96.63
2018-12-04T03:44:09.963Z,96.67
2018-12-04T03:46:59.643Z,96.57
2018-12-04T03:49:49.698Z,102.55
2018-12-04T03:52:38.855Z,96.67
2018-12-04T03:55:27.443Z,100.60
2018-12-04T03:58:15.647Z,96.72
2018-12-04T04:01:05.170Z,96.53
2018-12-04T04:03:53.352Z,92.65
2018-12-04T04:06:41.521Z,98.00
2018-12-04T04:09:32.213Z,97.02
2018-12-04T04:12:24.394Z,96.20
2018-12-04T04:15:13.103Z,93.45
2018-12-04T04:18:02.146Z,93.62
2018-12-04T04:20:52.542Z,95.10
2018-12-04T04:23:43.555Z,90.20
2018-12-04T04:26:32.230Z,89.32
2018-12-04T04:29:20.985Z,95.28
2018-12-04T04:32:09.946Z,93.72
2018-12-04T04:34:58.915Z,130.05
2018-12-04T04:37:47.393Z,116.75
2018-12-04T04:40:35.552Z,107.17
2018-12-04T04:43:24.720Z,105.30
2018-12-04T04:46:14.451Z,100.18
2018-12-04T04:49:03.132Z,98.00
2018-12-04T04:51:52.393Z,95.57
2018-12-04T04:54:42.718Z,95.95
2018-12-04T04:57:34.877Z,95.77
2018-12-04T05:00:27.808Z,96.63
2018-12-04T05:03:17.368Z,95.67
2018-12-04T05:06:05.594Z,95.90
2018-12-04T05:08:54.289Z,97.00
2018-12-04T05:11:44.616Z,98.97
2018-12-04T05:17:50.030Z,92.55
2018-12-04T05:20:41.258Z,94.95
2018-12-04T05:23:31.198Z,92.35
2018-12-04T05:26:20.535Z,93.35
2018-12-04T05:29:13.391Z,91.17
2018-12-04T05:32:03.183Z,92.33
2018-12-04T05:34:51.536Z,88.58
2018-12-04T05:37:46.170Z,88.78
2018-12-04T05:40:36.546Z,85.75
2018-12-04T05:43:26.942Z,82.30
2018-12-04T05:46:16.931Z,82.40
2018-12-04T05:49:04.653Z,81.57
2018-12-04T05:51:56.050Z,77.45
2018-12-04T05:54:44.493Z,82.20
2018-12-04T05:57:33.620Z,77.70
2018-12-04T06:00:23.604Z,76.67
2018-12-04T06:03:11.908Z,74.55
2018-12-04T06:06:00.529Z,73.92
2018-12-04T06:08:51.747Z,73.97
2018-12-04T06:11:42.281Z,74.00
2018-12-04T06:14:31.516Z,73.12
2018-12-04T06:17:26.893Z,69.03
2018-12-04T06:20:19.117Z,70.55
2018-12-04T06:23:10.368Z,69.22
2018-12-04T06:26:02.896Z,68.83
2018-12-04T06:28:52.691Z,66.00
2018-12-04T06:31:41.860Z,69.10
2018-12-04T06:34:35.042Z,66.77
2018-12-04T06:37:23.736Z,66.70
2018-12-04T06:40:13.559Z,65.25
2018-12-04T06:43:02.993Z,65.17
2018-12-04T06:45:52.240Z,64.87
2018-12-04T06:48:43.722Z,64.45
2018-12-04T06:51:32.091Z,65.12
2018-12-04T06:54:23.230Z,65.37
2018-12-04T06:57:11.797Z,63.48
2018-12-04T07:00:01.170Z,66.30
2018-12-04T07:02:51.225Z,63.15
2018-12-04T07:05:42.829Z,62.78
2018-12-04T07:08:32.202Z,63.92
2018-12-04T07:11:20.415Z,63.10
2018-12-04T07:14:09.209Z,63.33
2018-12-04T07:16:57.944Z,65.55
2018-12-04T07:19:49.061Z,60.67
2018-12-04T07:22:39.589Z,62.62
2018-12-04T07:25:29.032Z,62.62
2018-12-04T07:28:19.727Z,61.95
2018-12-04T07:31:08.333Z,58.68
2018-12-04T07:33:57.713Z,61.15
2018-12-04T07:36:47.954Z,60.15
2018-12-04T07:39:36.918Z,57.40
2018-12-04T07:42:27.406Z,57.05
2018-12-04T07:45:16.566Z,56.63
2018-12-04T07:48:06.673Z,56.37
2018-12-04T07:50:55.609Z,57.73
2018-12-04T07:53:44.437Z,58.75
2018-12-04T07:56:33.968Z,56.70
2018-12-04T07:59:23.528Z,55.58
2018-12-04T08:02:19.099Z,55.73
2018-12-04T08:05:10.493Z,56.50
2018-12-04T08:08:00.760Z,56.42
2018-12-04T08:10:50.167Z,55.85
2018-12-04T08:13:37.788Z,54.33
2018-12-04T08:16:26.176Z,54.10
2018-12-04T08:19:14.276Z,54.93
2018-12-04T08:22:09.311Z,55.25
2018-12-04T08:25:03.899Z,55.80
2018-12-04T08:27:55.136Z,56.83
2018-12-04T08:30:44.666Z,55.45
2018-12-04T08:33:34.226Z,55.60
2018-12-04T08:36:22.885Z,54.98
2018-12-04T08:39:13.316Z,55.17
2018-12-04T08:42:02.393Z,55.40
2018-12-04T08:44:50.283Z,54.63
2018-12-04T08:47:39.077Z,56.30
2018-12-04T08:50:28.096Z,57.00
2018-12-04T08:53:17.092Z,54.33
2018-12-04T08:56:06.857Z,56.60
2018-12-04T08:58:58.398Z,57.78
2018-12-04T09:01:46.566Z,56.10
2018-12-04T09:04:34.383Z,54.50
2018-12-04T09:07:22.336Z,52.30
2018-12-04T09:10:10.530Z,52.90
2018-12-04T09:12:58.891Z,53.65
2018-12-04T09:15:47.195Z,55.15
2018-12-04T09:18:35.861Z,54.63
2018-12-04T09:21:24.111Z,55.23
2018-12-04T09:24:13.043Z,56.92
2018-12-04T09:27:05.550Z,57.10
2018-12-04T09:29:52.881Z,56.95
2018-12-04T09:32:41.241Z,57.45
2018-12-04T09:35:30.983Z,55.80
2018-12-04T09:38:20.779Z,56.33
2018-12-04T09:41:14.895Z,57.13
2018-12-04T09:44:08.453Z,57.20
2018-12-04T09:47:00.944Z,57.10
2018-12-04T09:49:55.539Z,56.33
2018-12-04T09:52:52.283Z,55.83
2018-12-04T09:55:41.559Z,54.15
2018-12-04T09:58:34.471Z,55.33
2018-12-04T10:01:23.972Z,55.20
2018-12-04T10:04:11.837Z,56.77
2018-12-04T10:07:01.683Z,56.10
2018-12-04T10:09:50.892Z,55.90
2018-12-04T10:12:39.630Z,56.42
2018-12-04T10:15:28.109Z,55.73
2018-12-04T10:18:18.288Z,56.13
2018-12-04T10:21:07.329Z,55.45
2018-12-04T10:23:55.805Z,54.00
2018-12-04T10:26:43.733Z,56.20
2018-12-04T10:29:31.483Z,54.95
2018-12-04T10:32:19.204Z,54.85
2018-12-04T10:35:06.974Z,57.45
2018-12-04T10:37:56.553Z,56.75
2018-12-04T10:40:45.225Z,57.78
2018-12-04T10:43:33.800Z,57.38
2018-12-04T10:46:23.334Z,57.27
2018-12-04T10:49:11.917Z,57.53
2018-12-04T10:52:00.195Z,58.60
2018-12-04T10:54:48.662Z,57.95
2018-12-04T10:57:36.657Z,59.60
2018-12-04T11:00:29.081Z,57.70
2018-12-04T11:03:18.248Z,59.58
2018-12-04T11:06:06.895Z,59.40
2018-12-04T11:08:56.417Z,58.02
2018-12-04T11:11:47.145Z,58.08
2018-12-04T11:14:38.219Z,56.45
2018-12-04T11:17:28.918Z,59.73
2018-12-04T11:20:20.973Z,55.35
2018-12-04T11:23:09.478Z,57.43
2018-12-04T11:26:00.016Z,58.17
2018-12-04T11:28:49.112Z,58.10
2018-12-04T11:31:37.832Z,59.13
2018-12-04T11:34:26.939Z,60.70
2018-12-04T11:37:15.712Z,58.75
2018-12-04T11:40:04.721Z,57.75
2018-12-04T11:42:53.075Z,60.03
2018-12-04T11:45:53.798Z,58.45
2018-12-04T11:48:43.771Z,58.40
2018-12-04T11:51:32.409Z,59.55
2018-12-04T11:54:23.458Z,57.45
2018-12-04T11:57:13.673Z,57.30
2018-12-04T12:00:04.105Z,56.95
2018-12-04T12:02:54.861Z,60.88
2018-12-04T12:05:44.030Z,58.13
2018-12-04T12:08:35.011Z,60.52
2018-12-04T12:11:23.683Z,60.33
2018-12-04T12:14:12.363Z,63.52
2018-12-04T12:17:00.902Z,64.60
2018-12-04T12:19:49.687Z,63.13
2018-12-04T12:22:37.620Z,60.80
2018-12-04T12:25:27.336Z,60.83
2018-12-04T12:28:17.494Z,62.15
2018-12-04T12:31:05.586Z,60.58
2018-12-04T12:33:53.323Z,59.93
